Time;durP1;ratioP1;P1;durP2;ratioP2;P2;SDS_P1;SDS_P2;PMS_P1;PMS_P2;Temp;Humidity;BMP_temperature;BMP_pressure;BME280_temperature;BME280_humidity;BME280_pressure;Samples;Min_cycle;Max_cycle;Signal;HPM_P1;HPM_P2
2023/05/30 00:01:14;;;;;;;13.77;5.28;;;;;;;;;;5024652;28;20053;-78
2023/05/30 00:04:13;;;;;;;10.23;5.40;;;;;;;;;;5039714;28;20057;-79
2023/05/30 00:06:59;;;;;;;9.32;5.38;;;;;;;;;;5046195;28;20045;-78
2023/05/30 00:09:45;;;;;;;8.05;5.70;;;;;;;;;;5037562;28;20041;-78
2023/05/30 00:12:30;;;;;;;7.47;4.70;;;;;;;;;;5052058;28;20041;-76
2023/05/30 00:15:16;;;;;;;7.72;5.55;;;;;;;;;;5031547;28;20486;-77
2023/05/30 00:18:01;;;;;;;6.18;4.90;;;;;;;;;;5032402;28;20411;-78
2023/05/30 00:20:47;;;;;;;6.60;5.43;;;;;;;;;;5032172;28;20041;-78
2023/05/30 00:23:35;;;;;;;7.15;5.32;;;;;;;;;;5017010;28;20045;-76
2023/05/30 00:26:21;;;;;;;5.95;5.15;;;;;;;;;;5031379;28;20053;-78
2023/05/30 00:29:12;;;;;;;6.78;5.05;;;;;;;;;;5032161;28;20053;-78
2023/05/30 00:31:58;;;;;;;8.25;5.70;;;;;;;;;;5032357;28;20398;-78
2023/05/30 00:34:44;;;;;;;11.55;5.68;;;;;;;;;;5036712;28;20053;-77
2023/05/30 00:37:30;;;;;;;6.45;5.43;;;;;;;;;;5037702;28;20430;-77
2023/05/30 00:40:16;;;;;;;7.43;5.28;;;;;;;;;;5030364;28;20045;-79
2023/05/30 00:43:02;;;;;;;10.85;5.30;;;;;;;;;;5030954;28;20788;-79
2023/05/30 00:45:51;;;;;;;10.15;5.32;;;;;;;;;;5031620;28;20403;-77
2023/05/30 00:48:38;;;;;;;6.68;4.95;;;;;;;;;;5031383;28;20041;-79
2023/05/30 00:51:28;;;;;;;8.30;5.63;;;;;;;;;;5051000;28;20053;-79
2023/05/30 00:54:13;;;;;;;10.30;5.72;;;;;;;;;;5051692;28;20061;-79
2023/05/30 00:56:59;;;;;;;7.93;5.35;;;;;;;;;;5030551;28;20049;-78
2023/05/30 00:59:45;;;;;;;9.70;5.00;;;;;;;;;;5051451;28;20037;-77
2023/05/30 01:02:33;;;;;;;8.65;5.10;;;;;;;;;;5036523;28;20045;-79
2023/05/30 01:05:20;;;;;;;9.10;5.78;;;;;;;;;;5030127;28;20053;-78
2023/05/30 01:08:07;;;;;;;6.97;5.30;;;;;;;;;;5023983;28;20045;-79
2023/05/30 01:11:06;;;;;;;9.25;5.43;;;;;;;;;;5031492;28;20391;-78
2023/05/30 01:14:13;;;;;;;7.95;5.70;;;;;;;;;;5037108;28;20501;-77
2023/05/30 01:17:20;;;;;;;8.18;4.47;;;;;;;;;;5023166;28;20045;-79
2023/05/30 01:20:09;;;;;;;9.82;5.60;;;;;;;;;;5036731;28;20045;-78
2023/05/30 01:23:15;;;;;;;9.05;5.30;;;;;;;;;;5025244;28;20398;-80
2023/05/30 01:26:35;;;;;;;6.18;4.80;;;;;;;;;;5051660;28;20487;-78
2023/05/30 01:29:24;;;;;;;10.32;5.55;;;;;;;;;;4973859;28;20041;-79
2023/05/30 01:32:19;;;;;;;9.85;5.53;;;;;;;;;;5038142;28;20045;-78
2023/05/30 01:35:20;;;;;;;12.95;5.65;;;;;;;;;;5053066;28;20045;-81
2023/05/30 01:38:05;;;;;;;10.68;5.78;;;;;;;;;;5053202;28;20037;-81
2023/05/30 01:40:58;;;;;;;8.32;5.55;;;;;;;;;;5037679;28;20487;-80
2023/05/30 01:43:49;;;;;;;7.15;5.50;;;;;;;;;;5036719;28;20049;-82
2023/05/30 01:46:38;;;;;;;8.90;5.15;;;;;;;;;;5036888;28;20041;-81
2023/05/30 01:49:34;;;;;;;10.90;5.57;;;;;;;;;;5050564;28;20041;-81
2023/05/30 01:52:24;;;;;;;8.27;5.57;;;;;;;;;;5036544;28;20045;-80
2023/05/30 01:55:11;;;;;;;7.75;6.00;;;;;;;;;;5031550;28;20398;-79
2023/05/30 01:57:57;;;;;;;9.48;5.97;;;;;;;;;;5050232;28;20045;-79
2023/05/30 02:00:46;;;;;;;7.05;6.10;;;;;;;;;;5035775;28;20046;-81
2023/05/30 02:03:31;;;;;;;6.78;5.60;;;;;;;;;;5030418;28;20053;-81
2023/05/30 02:06:17;;;;;;;10.07;6.15;;;;;;;;;;5030265;28;20570;-81
2023/05/30 02:09:07;;;;;;;9.50;6.75;;;;;;;;;;5054756;28;20045;-80
2023/05/30 02:11:52;;;;;;;11.18;6.95;;;;;;;;;;5051611;28;20041;-79
2023/05/30 02:14:38;;;;;;;13.18;9.15;;;;;;;;;;5040081;28;20049;-81
2023/05/30 02:17:25;;;;;;;20.52;13.60;;;;;;;;;;5040244;28;20045;-81
2023/05/30 02:20:10;;;;;;;25.52;16.35;;;;;;;;;;5018611;28;20045;-79
2023/05/30 02:22:56;;;;;;;25.27;15.70;;;;;;;;;;5026888;28;20041;-81
2023/05/30 02:25:41;;;;;;;27.38;16.40;;;;;;;;;;5033006;28;20526;-79
2023/05/30 02:28:27;;;;;;;31.90;18.27;;;;;;;;;;5033969;28;20057;-79
2023/05/30 02:31:13;;;;;;;36.97;21.08;;;;;;;;;;5033598;28;20049;-79
2023/05/30 02:33:59;;;;;;;37.33;22.08;;;;;;;;;;5040077;28;20045;-79
2023/05/30 02:36:44;;;;;;;32.47;18.33;;;;;;;;;;5039248;28;20053;-79
2023/05/30 02:39:32;;;;;;;33.25;19.38;;;;;;;;;;5039163;28;20046;-79
2023/05/30 02:42:17;;;;;;;29.55;18.77;;;;;;;;;;5025900;28;20045;-79
2023/05/30 02:45:04;;;;;;;29.98;18.00;;;;;;;;;;5052450;28;20049;-80
2023/05/30 02:47:52;;;;;;;24.92;16.13;;;;;;;;;;5053674;28;20053;-79
2023/05/30 02:50:37;;;;;;;27.75;18.08;;;;;;;;;;5039638;28;20411;-79
2023/05/30 02:53:27;;;;;;;27.45;17.40;;;;;;;;;;5039195;28;20045;-81
2023/05/30 02:56:15;;;;;;;24.83;16.13;;;;;;;;;;5039355;28;20045;-79
2023/05/30 02:59:23;;;;;;;14.70;9.95;;;;;;;;;;5050835;28;20049;-81
2023/05/30 03:02:19;;;;;;;22.13;11.25;;;;;;;;;;5038986;28;20479;-81
2023/05/30 03:05:05;;;;;;;17.33;10.75;;;;;;;;;;5039435;28;20045;-81
2023/05/30 03:07:51;;;;;;;20.95;12.02;;;;;;;;;;5033613;28;20483;-81
2023/05/30 03:10:36;;;;;;;18.67;11.10;;;;;;;;;;5038565;28;20053;-81
2023/05/30 03:13:22;;;;;;;14.27;9.48;;;;;;;;;;5039379;28;20057;-79
2023/05/30 03:16:07;;;;;;;14.35;9.27;;;;;;;;;;5024364;28;20049;-79
2023/05/30 03:18:54;;;;;;;13.70;9.27;;;;;;;;;;5032054;28;20057;-81
2023/05/30 03:21:40;;;;;;;16.77;8.75;;;;;;;;;;5039445;28;20049;-81
2023/05/30 03:24:26;;;;;;;16.08;9.85;;;;;;;;;;5038306;28;20470;-80
2023/05/30 03:27:12;;;;;;;12.57;9.20;;;;;;;;;;5038423;28;20045;-79
2023/05/30 03:29:57;;;;;;;15.32;9.00;;;;;;;;;;5033160;28;20053;-80
2023/05/30 03:32:43;;;;;;;19.13;10.70;;;;;;;;;;5038876;28;20057;-80
2023/05/30 03:35:29;;;;;;;18.45;10.30;;;;;;;;;;5039008;28;20041;-81
2023/05/30 03:38:14;;;;;;;17.17;9.93;;;;;;;;;;5038781;28;20049;-80
2023/05/30 03:41:00;;;;;;;17.20;10.38;;;;;;;;;;5052585;28;20479;-81
2023/05/30 03:43:47;;;;;;;14.85;9.23;;;;;;;;;;5038406;28;20053;-80
2023/05/30 03:46:33;;;;;;;18.25;9.50;;;;;;;;;;5024544;28;20049;-80
2023/05/30 03:49:19;;;;;;;15.73;10.05;;;;;;;;;;5038782;28;20045;-82
2023/05/30 03:52:05;;;;;;;20.35;8.90;;;;;;;;;;5052429;28;20057;-82
2023/05/30 03:54:52;;;;;;;15.20;8.10;;;;;;;;;;5038399;28;20041;-81
2023/05/30 03:57:37;;;;;;;14.52;8.10;;;;;;;;;;5038108;28;20046;-82
2023/05/30 04:00:22;;;;;;;15.98;8.60;;;;;;;;;;5038159;28;20041;-81
2023/05/30 04:03:07;;;;;;;11.77;8.05;;;;;;;;;;5032832;28;20491;-81
2023/05/30 04:05:53;;;;;;;13.65;8.18;;;;;;;;;;5037994;28;20053;-81
2023/05/30 04:08:40;;;;;;;14.30;8.13;;;;;;;;;;5038127;28;20041;-81
2023/05/30 04:11:25;;;;;;;13.60;9.30;;;;;;;;;;5039156;28;20037;-81
2023/05/30 04:14:11;;;;;;;18.35;9.38;;;;;;;;;;5037816;28;20049;-79
2023/05/30 04:16:56;;;;;;;14.70;9.07;;;;;;;;;;5052997;28;20052;-80
2023/05/30 04:19:43;;;;;;;17.35;8.63;;;;;;;;;;5025268;28;20083;-81
2023/05/30 04:22:28;;;;;;;17.00;8.93;;;;;;;;;;5039801;28;20053;-81
2023/05/30 04:25:14;;;;;;;16.30;9.85;;;;;;;;;;5040350;28;20049;-80
2023/05/30 04:28:00;;;;;;;14.60;9.07;;;;;;;;;;5037353;28;20057;-79
2023/05/30 04:30:49;;;;;;;19.92;9.32;;;;;;;;;;5024291;28;20046;-80
2023/05/30 04:33:37;;;;;;;15.63;9.00;;;;;;;;;;5038411;28;20045;-80
2023/05/30 04:36:23;;;;;;;18.88;9.15;;;;;;;;;;5051439;28;20053;-82
2023/05/30 04:39:09;;;;;;;17.13;9.43;;;;;;;;;;5038734;28;20049;-80
2023/05/30 04:41:55;;;;;;;20.05;9.38;;;;;;;;;;5038861;28;20049;-78
2023/05/30 04:44:41;;;;;;;15.32;9.18;;;;;;;;;;5037787;28;20053;-78
2023/05/30 04:47:28;;;;;;;16.95;8.98;;;;;;;;;;5033699;28;20049;-78
2023/05/30 04:50:14;;;;;;;20.92;9.88;;;;;;;;;;5037626;28;20403;-78
2023/05/30 04:52:59;;;;;;;15.38;9.63;;;;;;;;;;5033096;28;20054;-78
2023/05/30 04:55:45;;;;;;;17.25;9.02;;;;;;;;;;5023655;28;20057;-79
2023/05/30 04:58:31;;;;;;;14.90;8.65;;;;;;;;;;5032373;28;20053;-81
2023/05/30 05:01:18;;;;;;;12.13;9.20;;;;;;;;;;5037424;28;20042;-80
2023/05/30 05:04:03;;;;;;;16.65;9.10;;;;;;;;;;5051627;28;20375;-81
2023/05/30 05:06:49;;;;;;;19.20;9.23;;;;;;;;;;5032050;28;20045;-80
2023/05/30 05:09:34;;;;;;;14.98;9.27;;;;;;;;;;5017240;28;20041;-81
2023/05/30 05:12:20;;;;;;;14.45;9.27;;;;;;;;;;5031390;28;20053;-79
2023/05/30 05:15:06;;;;;;;18.60;8.50;;;;;;;;;;5018457;28;20045;-79
2023/05/30 05:17:51;;;;;;;13.60;8.07;;;;;;;;;;5038441;28;20053;-80
2023/05/30 05:20:37;;;;;;;16.23;8.82;;;;;;;;;;5037894;28;20041;-80
2023/05/30 05:23:24;;;;;;;13.32;9.13;;;;;;;;;;5037920;28;20042;-77
2023/05/30 05:26:10;;;;;;;16.38;8.93;;;;;;;;;;5037053;28;20053;-77
2023/05/30 05:28:57;;;;;;;13.10;8.80;;;;;;;;;;5037146;28;20049;-79
2023/05/30 05:31:43;;;;;;;14.05;7.63;;;;;;;;;;5037010;28;20042;-80
2023/05/30 05:34:28;;;;;;;12.85;7.95;;;;;;;;;;5022320;28;20041;-79
2023/05/30 05:37:13;;;;;;;13.55;8.70;;;;;;;;;;5035904;28;20057;-78
2023/05/30 05:40:01;;;;;;;9.77;7.20;;;;;;;;;;5031469;28;20033;-78
2023/05/30 05:42:45;;;;;;;15.10;8.93;;;;;;;;;;5033340;28;20049;-79
2023/05/30 05:45:31;;;;;;;10.45;7.28;;;;;;;;;;5036940;28;20034;-79
2023/05/30 05:48:17;;;;;;;12.32;8.05;;;;;;;;;;5037254;28;20033;-79
2023/05/30 05:51:03;;;;;;;16.52;8.88;;;;;;;;;;5035801;28;20368;-78
2023/05/30 05:53:48;;;;;;;15.23;8.35;;;;;;;;;;5037713;28;20049;-80
2023/05/30 05:56:33;;;;;;;11.75;7.45;;;;;;;;;;5036029;28;20050;-78
2023/05/30 05:59:19;;;;;;;12.40;7.88;;;;;;;;;;5034662;28;20057;-79
2023/05/30 06:02:05;;;;;;;11.65;7.82;;;;;;;;;;5033128;28;20578;-79
2023/05/30 06:04:50;;;;;;;11.98;7.95;;;;;;;;;;5034802;28;20412;-79
2023/05/30 06:07:36;;;;;;;14.95;8.27;;;;;;;;;;5035354;28;20041;-80
2023/05/30 06:10:22;;;;;;;11.32;7.32;;;;;;;;;;5038729;28;20041;-81
2023/05/30 06:13:07;;;;;;;11.73;7.65;;;;;;;;;;5036440;28;20053;-79
2023/05/30 06:15:52;;;;;;;16.23;7.53;;;;;;;;;;5034129;28;20052;-79
2023/05/30 06:18:38;;;;;;;11.88;7.00;;;;;;;;;;5035390;28;20042;-81
2023/05/30 06:21:24;;;;;;;13.50;7.70;;;;;;;;;;5039601;28;20045;-80
2023/05/30 06:24:09;;;;;;;10.20;6.65;;;;;;;;;;5033279;28;20045;-78
2023/05/30 06:26:55;;;;;;;14.18;7.32;;;;;;;;;;5033292;28;20045;-80
2023/05/30 06:29:41;;;;;;;8.40;6.07;;;;;;;;;;5035100;28;20057;-79
2023/05/30 06:32:26;;;;;;;11.10;6.72;;;;;;;;;;5036526;28;20053;-79
2023/05/30 06:35:12;;;;;;;9.77;6.38;;;;;;;;;;5036871;28;20041;-80
2023/05/30 06:37:57;;;;;;;8.77;5.47;;;;;;;;;;5035892;28;20403;-79
2023/05/30 06:40:43;;;;;;;8.85;5.93;;;;;;;;;;5036172;28;20045;-79
2023/05/30 06:43:28;;;;;;;8.75;5.97;;;;;;;;;;5037067;28;20049;-79
2023/05/30 06:46:14;;;;;;;13.23;6.80;;;;;;;;;;5039101;28;20053;-80
2023/05/30 06:49:02;;;;;;;10.55;6.30;;;;;;;;;;5036790;28;20049;-79
2023/05/30 06:51:49;;;;;;;9.13;6.50;;;;;;;;;;5050363;28;20053;-79
2023/05/30 06:54:35;;;;;;;9.30;6.22;;;;;;;;;;5039354;28;20053;-79
2023/05/30 06:57:20;;;;;;;8.75;6.68;;;;;;;;;;5039684;28;20045;-79
2023/05/30 07:00:06;;;;;;;9.90;6.85;;;;;;;;;;5037971;28;20042;-79
2023/05/30 07:02:55;;;;;;;11.57;6.95;;;;;;;;;;5038375;28;20049;-79
2023/05/30 07:05:44;;;;;;;11.70;6.68;;;;;;;;;;5019838;28;20042;-78
2023/05/30 07:08:29;;;;;;;9.10;5.53;;;;;;;;;;5034055;28;20042;-81
2023/05/30 07:11:14;;;;;;;8.27;6.80;;;;;;;;;;5036081;28;20053;-79
2023/05/30 07:14:00;;;;;;;9.27;6.57;;;;;;;;;;5034506;28;20045;-77
2023/05/30 07:16:45;;;;;;;9.48;6.32;;;;;;;;;;5035225;28;20052;-79
2023/05/30 07:19:31;;;;;;;13.35;7.10;;;;;;;;;;5035472;28;20041;-78
2023/05/30 07:22:17;;;;;;;7.95;5.82;;;;;;;;;;5034731;28;20049;-79
2023/05/30 07:25:02;;;;;;;12.20;6.78;;;;;;;;;;5038857;28;20049;-79
2023/05/30 07:27:48;;;;;;;15.30;6.88;;;;;;;;;;5038965;28;20053;-80
2023/05/30 07:30:33;;;;;;;11.93;6.05;;;;;;;;;;5035231;28;20045;-79
2023/05/30 07:33:19;;;;;;;7.70;5.28;;;;;;;;;;5035081;28;20041;-78
2023/05/30 07:36:05;;;;;;;9.55;6.13;;;;;;;;;;5034643;28;20053;-79
2023/05/30 07:38:51;;;;;;;7.32;5.45;;;;;;;;;;5033603;28;20053;-79
2023/05/30 07:41:37;;;;;;;8.82;5.82;;;;;;;;;;5032197;28;20042;-78
2023/05/30 07:44:22;;;;;;;9.90;6.00;;;;;;;;;;5035189;28;20045;-80
2023/05/30 07:47:08;;;;;;;10.48;6.13;;;;;;;;;;5037463;28;20049;-80
2023/05/30 07:49:54;;;;;;;8.65;5.05;;;;;;;;;;5036873;28;20049;-80
2023/05/30 07:52:39;;;;;;;23.33;9.02;;;;;;;;;;5033623;28;20045;-79
2023/05/30 07:55:26;;;;;;;14.27;6.45;;;;;;;;;;5035678;28;20057;-80
2023/05/30 07:58:22;;;;;;;10.32;5.40;;;;;;;;;;5034619;28;20041;-81
2023/05/30 08:01:15;;;;;;;11.30;6.38;;;;;;;;;;5018580;28;20049;-80
2023/05/30 08:04:00;;;;;;;9.32;6.68;;;;;;;;;;5035482;28;20037;-79
2023/05/30 08:06:46;;;;;;;14.10;6.30;;;;;;;;;;5031976;28;20499;-81
2023/05/30 08:09:32;;;;;;;7.68;5.35;;;;;;;;;;5017756;28;20041;-80
2023/05/30 08:12:19;;;;;;;8.85;6.05;;;;;;;;;;5032605;28;20042;-79
2023/05/30 08:15:07;;;;;;;7.22;4.63;;;;;;;;;;5033198;28;20041;-80
2023/05/30 08:17:56;;;;;;;11.80;7.05;;;;;;;;;;5045460;28;20050;-84
2023/05/30 08:21:20;;;;;;;9.23;5.82;;;;;;;;;;5032746;28;20041;-84
2023/05/30 08:24:28;;;;;;;8.33;5.73;;;;;;;;;;5026973;28;20399;-83
2023/05/30 08:27:13;;;;;;;9.65;5.45;;;;;;;;;;5037411;28;20499;-84
2023/05/30 08:29:59;;;;;;;8.98;5.78;;;;;;;;;;5038282;28;20049;-83
2023/05/30 08:32:45;;;;;;;9.00;5.72;;;;;;;;;;5032043;28;20041;-82
2023/05/30 08:35:31;;;;;;;7.07;5.03;;;;;;;;;;5032003;28;20045;-83
2023/05/30 08:38:20;;;;;;;9.60;5.85;;;;;;;;;;5032511;28;20045;-84
2023/05/30 08:41:09;;;;;;;5.82;4.85;;;;;;;;;;5031308;28;20045;-84
2023/05/30 08:43:57;;;;;;;7.38;4.53;;;;;;;;;;5032755;28;20053;-81
2023/05/30 08:46:43;;;;;;;7.93;5.18;;;;;;;;;;5031653;28;20048;-80
2023/05/30 08:49:35;;;;;;;7.97;5.38;;;;;;;;;;5031259;28;20479;-80
2023/05/30 08:52:24;;;;;;;8.35;5.78;;;;;;;;;;5032144;28;20033;-80
2023/05/30 08:55:22;;;;;;;7.53;5.30;;;;;;;;;;5031162;28;20390;-78
2023/05/30 08:58:24;;;;;;;11.02;5.38;;;;;;;;;;5029642;28;20049;-80
2023/05/30 09:01:10;;;;;;;6.55;4.82;;;;;;;;;;5030973;28;20045;-79
2023/05/30 09:03:57;;;;;;;8.82;5.50;;;;;;;;;;5029521;28;20645;-79
2023/05/30 09:06:45;;;;;;;8.13;5.18;;;;;;;;;;5030547;28;20053;-80
2023/05/30 09:09:33;;;;;;;7.28;4.93;;;;;;;;;;5031543;28;20049;-80
2023/05/30 09:12:19;;;;;;;9.30;5.05;;;;;;;;;;5031322;28;20045;-81
2023/05/30 09:15:05;;;;;;;9.05;5.40;;;;;;;;;;5030745;28;20057;-79
2023/05/30 09:17:50;;;;;;;9.32;5.72;;;;;;;;;;5033225;28;20053;-79
2023/05/30 09:20:39;;;;;;;7.10;5.82;;;;;;;;;;5035379;28;20045;-80
2023/05/30 09:23:25;;;;;;;9.20;5.32;;;;;;;;;;5035206;28;20042;-79
2023/05/30 09:26:14;;;;;;;8.15;4.82;;;;;;;;;;5026721;28;20075;-79
2023/05/30 09:29:10;;;;;;;7.22;4.85;;;;;;;;;;5035508;28;20053;-81
2023/05/30 09:31:56;;;;;;;7.13;4.97;;;;;;;;;;5035656;28;20042;-79
2023/05/30 09:34:55;;;;;;;7.80;4.97;;;;;;;;;;5035335;28;20049;-79
2023/05/30 09:37:43;;;;;;;7.63;5.10;;;;;;;;;;5035985;28;20046;-85
2023/05/30 09:40:30;;;;;;;8.45;5.28;;;;;;;;;;5034259;28;20403;-84
2023/05/30 09:43:30;;;;;;;6.30;4.10;;;;;;;;;;5055024;28;20511;-82
2023/05/30 09:46:15;;;;;;;7.80;5.43;;;;;;;;;;5035201;28;20045;-84
2023/05/30 09:49:12;;;;;;;5.97;4.20;;;;;;;;;;5035261;28;20045;-83
2023/05/30 09:51:59;;;;;;;5.22;4.30;;;;;;;;;;5019838;28;20045;-81
2023/05/30 09:54:44;;;;;;;5.82;4.45;;;;;;;;;;5034692;28;20045;-84
2023/05/30 09:57:30;;;;;;;5.65;4.65;;;;;;;;;;5040682;28;20057;-81
2023/05/30 10:00:17;;;;;;;6.38;4.50;;;;;;;;;;5035192;28;20038;-83
2023/05/30 10:03:03;;;;;;;7.80;4.80;;;;;;;;;;5034229;28;20487;-85
2023/05/30 10:05:48;;;;;;;5.90;4.28;;;;;;;;;;5040887;28;20049;-84
2023/05/30 10:08:34;;;;;;;7.03;4.60;;;;;;;;;;5035126;28;20482;-80
2023/05/30 10:11:20;;;;;;;8.07;4.80;;;;;;;;;;5034515;28;20475;-80
2023/05/30 10:14:06;;;;;;;7.38;4.43;;;;;;;;;;5035058;28;20045;-79
2023/05/30 10:16:58;;;;;;;7.22;4.57;;;;;;;;;;5033745;28;20041;-78
2023/05/30 10:19:58;;;;;;;7.55;4.60;;;;;;;;;;5034913;28;20041;-79
2023/05/30 10:22:46;;;;;;;7.93;4.60;;;;;;;;;;5033739;28;20050;-82
2023/05/30 10:25:33;;;;;;;5.53;4.32;;;;;;;;;;5033614;28;20048;-81
2023/05/30 10:28:23;;;;;;;4.72;4.05;;;;;;;;;;5033487;28;20049;-81
2023/05/30 10:31:11;;;;;;;8.15;4.78;;;;;;;;;;5034521;28;20391;-78
2023/05/30 10:34:01;;;;;;;6.68;4.30;;;;;;;;;;5033542;28;20045;-78
2023/05/30 10:36:47;;;;;;;8.77;5.82;;;;;;;;;;5033158;28;20045;-82
2023/05/30 10:39:57;;;;;;;5.47;4.60;;;;;;;;;;5033332;28;20049;-83
2023/05/30 10:42:57;;;;;;;9.10;4.30;;;;;;;;;;5033268;28;20049;-81
2023/05/30 10:46:03;;;;;;;6.13;4.22;;;;;;;;;;5034097;28;20049;-81
2023/05/30 10:48:52;;;;;;;7.15;4.50;;;;;;;;;;5034217;28;20045;-80
2023/05/30 10:52:07;;;;;;;5.55;4.05;;;;;;;;;;5033647;28;20045;-79
2023/05/30 10:54:53;;;;;;;7.82;5.00;;;;;;;;;;5033679;28;20045;-81
2023/05/30 10:57:41;;;;;;;6.65;4.40;;;;;;;;;;5033631;28;20479;-81
2023/05/30 11:00:29;;;;;;;6.20;4.07;;;;;;;;;;5034424;28;20053;-85
2023/05/30 11:03:35;;;;;;;6.28;4.55;;;;;;;;;;5032231;28;20495;-84
2023/05/30 11:06:20;;;;;;;9.45;4.60;;;;;;;;;;5033547;28;20037;-84
2023/05/30 11:09:10;;;;;;;4.95;4.00;;;;;;;;;;5034253;28;20049;-82
2023/05/30 11:11:57;;;;;;;4.75;3.97;;;;;;;;;;5033486;28;20434;-84
2023/05/30 11:14:55;;;;;;;6.20;3.80;;;;;;;;;;5032153;28;20045;-83
2023/05/30 11:17:40;;;;;;;4.75;2.97;;;;;;;;;;5033311;28;20050;-80
2023/05/30 11:20:26;;;;;;;6.72;4.05;;;;;;;;;;5033144;28;20045;-79
2023/05/30 11:23:12;;;;;;;5.15;3.83;;;;;;;;;;5032306;28;20045;-82
2023/05/30 11:25:58;;;;;;;5.43;4.03;;;;;;;;;;5053076;28;20045;-78
2023/05/30 11:28:45;;;;;;;5.68;4.15;;;;;;;;;;5032575;28;20498;-77
2023/05/30 11:31:32;;;;;;;5.88;4.03;;;;;;;;;;5033012;28;20041;-78
2023/05/30 11:34:18;;;;;;;8.98;4.70;;;;;;;;;;5032725;28;20045;-79
2023/05/30 11:37:04;;;;;;;7.55;4.13;;;;;;;;;;5032625;28;20041;-80
2023/05/30 11:39:56;;;;;;;6.47;4.15;;;;;;;;;;5052377;28;20046;-77
2023/05/30 11:42:42;;;;;;;6.22;3.90;;;;;;;;;;5032468;28;20042;-80
2023/05/30 11:45:31;;;;;;;5.30;3.65;;;;;;;;;;5032598;28;20045;-77
2023/05/30 11:48:18;;;;;;;5.75;4.32;;;;;;;;;;5033436;28;20049;-79
2023/05/30 11:51:03;;;;;;;6.13;3.78;;;;;;;;;;5031606;28;20049;-80
2023/05/30 11:53:51;;;;;;;8.15;4.20;;;;;;;;;;5032084;28;20093;-80
2023/05/30 11:56:39;;;;;;;6.95;3.60;;;;;;;;;;5032170;28;20041;-81
2023/05/30 11:59:27;;;;;;;7.18;4.10;;;;;;;;;;5038537;28;20423;-78
2023/05/30 12:02:11;;;;;;;4.93;4.05;;;;;;;;;;5032282;28;20053;-78
2023/05/30 12:05:02;;;;;;;4.03;3.63;;;;;;;;;;5032282;28;20046;-81
2023/05/30 12:07:54;;;;;;;4.72;3.55;;;;;;;;;;5031157;28;20499;-80
2023/05/30 12:10:39;;;;;;;10.05;3.95;;;;;;;;;;5024300;28;20045;-78
2023/05/30 12:13:27;;;;;;;4.40;3.83;;;;;;;;;;5031653;28;20571;-78
2023/05/30 12:16:11;;;;;;;4.43;3.50;;;;;;;;;;5031631;28;20041;-78
2023/05/30 12:18:57;;;;;;;5.10;3.65;;;;;;;;;;5032501;28;20049;-81
2023/05/30 12:21:42;;;;;;;3.88;3.45;;;;;;;;;;5031359;28;20046;-78
2023/05/30 12:24:28;;;;;;;5.75;3.65;;;;;;;;;;5017347;28;20045;-78
2023/05/30 12:27:20;;;;;;;5.18;3.35;;;;;;;;;;5016893;28;20049;-78
2023/05/30 12:30:14;;;;;;;6.47;3.85;;;;;;;;;;5031513;28;20049;-82
2023/05/30 12:33:11;;;;;;;5.97;3.80;;;;;;;;;;5032282;28;20037;-82
2023/05/30 12:35:57;;;;;;;5.00;3.60;;;;;;;;;;5016800;28;20053;-82
2023/05/30 12:38:42;;;;;;;7.63;3.70;;;;;;;;;;5031348;28;20041;-83
2023/05/30 12:41:29;;;;;;;5.13;3.30;;;;;;;;;;5031617;28;20045;-82
2023/05/30 12:44:19;;;;;;;11.82;3.50;;;;;;;;;;5031471;28;20144;-82
2023/05/30 12:47:04;;;;;;;3.83;3.20;;;;;;;;;;5050857;28;20049;-83
2023/05/30 12:49:50;;;;;;;6.50;3.30;;;;;;;;;;5031597;28;20037;-82
2023/05/30 12:52:35;;;;;;;3.85;3.22;;;;;;;;;;5030814;28;20041;-81
2023/05/30 12:55:21;;;;;;;5.82;3.30;;;;;;;;;;5031775;28;20037;-83
2023/05/30 12:58:06;;;;;;;4.20;3.25;;;;;;;;;;5032244;28;20053;-79
2023/05/30 13:00:52;;;;;;;4.50;3.20;;;;;;;;;;5030893;28;20042;-79
2023/05/30 13:03:37;;;;;;;6.55;3.80;;;;;;;;;;5031241;28;20399;-82
2023/05/30 13:06:23;;;;;;;4.32;3.55;;;;;;;;;;5031241;28;20423;-82
2023/05/30 13:09:09;;;;;;;5.70;3.33;;;;;;;;;;5031780;28;20049;-79
2023/05/30 13:11:55;;;;;;;6.93;3.05;;;;;;;;;;5031247;28;20034;-79
2023/05/30 13:14:42;;;;;;;4.43;3.30;;;;;;;;;;5030652;28;20045;-80
2023/05/30 13:17:27;;;;;;;4.10;2.90;;;;;;;;;;5031067;28;20042;-79
2023/05/30 13:20:12;;;;;;;9.20;3.20;;;;;;;;;;5030667;28;20049;-80
2023/05/30 13:22:58;;;;;;;5.68;3.08;;;;;;;;;;5030649;28;20038;-77
2023/05/30 13:25:44;;;;;;;7.07;3.25;;;;;;;;;;5030267;28;20057;-81
2023/05/30 13:28:33;;;;;;;16.05;3.60;;;;;;;;;;5030046;28;20049;-83
2023/05/30 13:31:25;;;;;;;5.88;3.28;;;;;;;;;;5031172;28;20487;-80
2023/05/30 13:34:12;;;;;;;5.70;3.38;;;;;;;;;;5042473;28;20058;-84
2023/05/30 13:36:57;;;;;;;6.78;3.55;;;;;;;;;;5030439;28;20048;-83
2023/05/30 13:39:43;;;;;;;4.95;3.40;;;;;;;;;;5035778;28;20041;-83
2023/05/30 13:42:29;;;;;;;6.05;3.50;;;;;;;;;;5030882;28;20049;-79
2023/05/30 13:45:14;;;;;;;5.93;2.78;;;;;;;;;;5030888;28;20053;-83
2023/05/30 13:48:00;;;;;;;4.22;2.80;;;;;;;;;;5030464;28;20049;-78
2023/05/30 13:50:49;;;;;;;3.20;2.30;;;;;;;;;;5030131;28;20479;-81
2023/05/30 13:53:36;;;;;;;4.15;2.30;;;;;;;;;;5030590;28;20422;-80
2023/05/30 13:56:21;;;;;;;3.78;2.47;;;;;;;;;;5015941;28;20042;-81
2023/05/30 13:59:07;;;;;;;5.75;2.47;;;;;;;;;;5031078;28;20053;-78
2023/05/30 14:01:52;;;;;;;4.68;2.78;;;;;;;;;;5030224;28;20038;-79
2023/05/30 14:04:39;;;;;;;7.07;2.65;;;;;;;;;;5033954;28;20052;-78
2023/05/30 14:07:25;;;;;;;5.55;3.40;;;;;;;;;;5033598;28;20038;-78
2023/05/30 14:10:11;;;;;;;3.40;2.40;;;;;;;;;;5035188;28;20042;-83
2023/05/30 14:12:57;;;;;;;6.13;3.15;;;;;;;;;;5034186;28;20026;-83
2023/05/30 14:15:48;;;;;;;4.00;2.70;;;;;;;;;;5034562;28;20487;-82
2023/05/30 14:18:45;;;;;;;5.07;3.28;;;;;;;;;;5034825;28;20097;-79
2023/05/30 14:21:31;;;;;;;4.75;3.00;;;;;;;;;;5033362;28;20041;-78
2023/05/30 14:24:17;;;;;;;7.97;3.80;;;;;;;;;;5034922;28;20475;-77
2023/05/30 14:27:06;;;;;;;5.68;3.35;;;;;;;;;;5034221;28;20041;-77
2023/05/30 14:30:01;;;;;;;19.40;6.78;;;;;;;;;;5033488;28;20053;-78
2023/05/30 14:32:52;;;;;;;9.90;4.65;;;;;;;;;;5033879;28;20042;-78
2023/05/30 14:35:42;;;;;;;7.13;3.60;;;;;;;;;;5033894;28;20049;-85
2023/05/30 14:38:34;;;;;;;10.75;4.35;;;;;;;;;;5034889;28;20049;-82
2023/05/30 14:41:23;;;;;;;17.33;6.70;;;;;;;;;;5052676;28;20041;-84
2023/05/30 14:44:08;;;;;;;9.77;4.82;;;;;;;;;;5034521;28;20049;-83
2023/05/30 14:46:54;;;;;;;6.10;3.50;;;;;;;;;;5039087;28;20033;-83
2023/05/30 14:49:40;;;;;;;8.82;3.70;;;;;;;;;;5033509;28;20045;-82
2023/05/30 14:52:25;;;;;;;6.35;3.35;;;;;;;;;;5033241;28;20046;-83
2023/05/30 14:55:11;;;;;;;7.60;4.07;;;;;;;;;;5034369;28;20041;-83
2023/05/30 14:57:56;;;;;;;9.05;3.65;;;;;;;;;;5032935;28;20049;-82
2023/05/30 15:00:42;;;;;;;7.22;4.32;;;;;;;;;;5033720;28;20041;-83
2023/05/30 15:03:27;;;;;;;9.45;5.88;;;;;;;;;;5033993;28;20049;-83
2023/05/30 15:06:13;;;;;;;9.93;5.80;;;;;;;;;;5033102;28;20053;-82
2023/05/30 15:08:59;;;;;;;14.77;6.13;;;;;;;;;;5033804;28;20391;-82
2023/05/30 15:11:47;;;;;;;7.25;4.72;;;;;;;;;;5031928;28;20415;-82
2023/05/30 15:14:34;;;;;;;7.03;4.60;;;;;;;;;;5033669;28;20041;-84
2023/05/30 15:17:22;;;;;;;8.85;5.57;;;;;;;;;;5033293;28;20049;-80
2023/05/30 15:20:07;;;;;;;11.55;5.40;;;;;;;;;;5033579;28;20592;-81
2023/05/30 15:22:52;;;;;;;13.35;5.45;;;;;;;;;;5033557;28;20053;-82
2023/05/30 15:25:39;;;;;;;9.50;6.25;;;;;;;;;;5033303;28;20041;-82
2023/05/30 15:28:27;;;;;;;13.65;5.90;;;;;;;;;;5035129;28;20439;-81
2023/05/30 15:31:12;;;;;;;9.73;5.80;;;;;;;;;;5033599;28;20053;-82
2023/05/30 15:33:58;;;;;;;9.85;6.85;;;;;;;;;;5031649;28;20049;-82
2023/05/30 15:36:43;;;;;;;10.70;6.55;;;;;;;;;;5033435;28;20045;-77
2023/05/30 15:39:29;;;;;;;12.57;6.22;;;;;;;;;;5031941;28;20048;-82
2023/05/30 15:42:16;;;;;;;15.20;7.07;;;;;;;;;;5016946;28;20041;-80
2023/05/30 15:45:03;;;;;;;10.63;7.00;;;;;;;;;;5039809;28;20499;-80
2023/05/30 15:47:52;;;;;;;8.95;6.22;;;;;;;;;;5031975;28;20037;-82
2023/05/30 15:50:38;;;;;;;10.73;6.57;;;;;;;;;;5031878;28;20049;-83
2023/05/30 15:53:23;;;;;;;10.40;6.85;;;;;;;;;;5030819;28;20045;-81
2023/05/30 15:56:09;;;;;;;11.02;7.28;;;;;;;;;;5031369;28;20053;-82
2023/05/30 15:58:54;;;;;;;11.02;7.05;;;;;;;;;;5038001;28;20060;-80
2023/05/30 16:01:40;;;;;;;19.15;6.70;;;;;;;;;;5031152;28;20403;-82
2023/05/30 16:04:25;;;;;;;8.55;6.10;;;;;;;;;;5029817;28;20057;-81
2023/05/30 16:07:11;;;;;;;11.45;5.13;;;;;;;;;;5031965;28;20049;-79
2023/05/30 16:09:56;;;;;;;7.95;4.70;;;;;;;;;;5032185;28;20395;-78
2023/05/30 16:12:42;;;;;;;9.02;4.57;;;;;;;;;;5032037;28;20037;-79
2023/05/30 16:15:27;;;;;;;7.68;4.90;;;;;;;;;;5032183;28;20045;-78
2023/05/30 16:18:13;;;;;;;7.80;4.68;;;;;;;;;;5031925;28;20045;-79
2023/05/30 16:20:59;;;;;;;6.35;4.13;;;;;;;;;;5032364;28;20394;-82
2023/05/30 16:23:44;;;;;;;9.73;4.40;;;;;;;;;;5016997;28;20049;-79
2023/05/30 16:26:30;;;;;;;6.45;4.32;;;;;;;;;;5031546;28;20041;-81
2023/05/30 16:29:15;;;;;;;10.45;4.43;;;;;;;;;;5029955;28;20041;-79
2023/05/30 16:32:01;;;;;;;7.20;4.28;;;;;;;;;;5030585;28;20033;-83
2023/05/30 16:34:48;;;;;;;8.75;4.50;;;;;;;;;;5050796;28;20037;-80
2023/05/30 16:37:33;;;;;;;9.95;4.38;;;;;;;;;;5031751;28;20046;-79